createdAt,value
2018-09-25T00:00:53.316Z,91.52
2018-09-25T00:01:53.553Z,91.80
2018-09-25T00:02:53.756Z,91.80
2018-09-25T00:03:53.979Z,91.80
2018-09-25T00:04:54.220Z,90.95
2018-09-25T00:05:54.434Z,90.57
2018-09-25T00:06:54.658Z,90.95
2018-09-25T00:07:54.883Z,90.95
2018-09-25T00:08:55.109Z,91.24
2018-09-25T00:09:55.332Z,91.14
2018-09-25T00:10:55.559Z,90.85
2018-09-25T00:11:55.783Z,90.85
2018-09-25T00:12:56.008Z,90.85
2018-09-25T00:13:56.233Z,91.14
2018-09-25T00:14:56.457Z,90.76
2018-09-25T00:15:56.681Z,90.95
2018-09-25T00:16:56.906Z,90.95
2018-09-25T00:17:57.132Z,90.95
2018-09-25T00:18:57.353Z,91.24
2018-09-25T00:19:57.580Z,91.24
2018-09-25T00:20:57.802Z,90.47
2018-09-25T00:21:58.030Z,90.85
2018-09-25T00:22:58.254Z,90.76
2018-09-25T00:23:58.478Z,91.04
2018-09-25T00:24:58.704Z,90.76
2018-09-25T00:25:58.927Z,90.85
2018-09-25T00:26:59.149Z,90.38
2018-09-25T00:27:59.375Z,90.47
2018-09-25T00:28:59.600Z,90.38
2018-09-25T00:29:59.824Z,90.28
2018-09-25T00:31:00.050Z,90.28
2018-09-25T00:32:00.275Z,90.47
2018-09-25T00:33:00.501Z,90.28
2018-09-25T00:34:00.724Z,90.09
2018-09-25T00:35:00.949Z,90.57
2018-09-25T00:36:01.174Z,90.28
2018-09-25T00:37:01.400Z,90.19
2018-09-25T00:38:01.624Z,90.47
2018-09-25T00:39:01.849Z,90.47
2018-09-25T00:40:02.074Z,90.47
2018-09-25T00:41:02.297Z,90.38
2018-09-25T00:42:02.523Z,90.57
2018-09-25T00:43:02.747Z,90.66
2018-09-25T00:44:02.971Z,90.66
2018-09-25T00:45:03.197Z,90.47
2018-09-25T00:46:03.423Z,90.57
2018-09-25T00:47:03.707Z,89.53
2018-09-25T00:48:03.875Z,89.81
2018-09-25T00:49:04.099Z,89.81
2018-09-25T00:50:04.324Z,90.57
2018-09-25T00:51:04.548Z,90.19
2018-09-25T00:52:04.775Z,90.19
2018-09-25T00:53:05.001Z,90.47
2018-09-25T00:54:05.227Z,90.38
2018-09-25T00:55:05.452Z,89.90
2018-09-25T00:56:05.673Z,90.00
2018-09-25T00:57:05.906Z,89.67
2018-09-25T00:58:06.126Z,89.43
2018-09-25T00:59:06.351Z,89.90
2018-09-25T01:00:06.577Z,90.00
2018-09-25T01:01:06.804Z,89.72
2018-09-25T01:02:07.029Z,89.90
2018-09-25T01:03:07.250Z,89.72
2018-09-25T01:04:07.473Z,89.43
2018-09-25T01:05:07.699Z,89.33
2018-09-25T01:06:07.921Z,89.14
2018-09-25T01:07:08.149Z,88.72
2018-09-25T01:08:08.374Z,88.91
2018-09-25T01:09:08.600Z,89.14
2018-09-25T01:10:08.828Z,89.39
2018-09-25T01:11:09.051Z,89.48
2018-09-25T01:12:09.277Z,89.29
2018-09-25T01:13:09.502Z,88.81
2018-09-25T01:14:09.729Z,89.10
2018-09-25T01:15:09.952Z,89.53
2018-09-25T01:16:10.179Z,89.33
2018-09-25T01:17:10.405Z,89.33
2018-09-25T01:18:10.630Z,89.33
2018-09-25T01:19:10.872Z,89.43
2018-09-25T01:20:11.080Z,89.53
2018-09-25T01:21:11.301Z,90.09
2018-09-25T01:22:11.528Z,89.81
2018-09-25T01:23:11.755Z,89.90
2018-09-25T01:24:11.977Z,89.53
2018-09-25T01:25:12.202Z,90.09
2018-09-25T01:26:12.425Z,90.09
2018-09-25T01:27:12.666Z,89.33
2018-09-25T01:28:12.876Z,89.90
2018-09-25T01:29:13.102Z,90.09
2018-09-25T01:30:13.328Z,89.72
2018-09-25T01:31:13.554Z,89.86
2018-09-25T01:32:13.777Z,89.58
2018-09-25T01:33:14.004Z,89.20
2018-09-25T01:34:14.228Z,89.20
2018-09-25T01:35:14.452Z,88.62
2018-09-25T01:36:14.677Z,89.14
2018-09-25T01:37:14.911Z,89.29
2018-09-25T01:38:15.130Z,89.20
2018-09-25T01:39:15.351Z,89.53
2018-09-25T01:40:15.576Z,89.72
2018-09-25T01:41:15.800Z,89.58
2018-09-25T01:42:16.025Z,89.10
2018-09-25T01:43:16.255Z,89.53
2018-09-25T01:44:16.477Z,89.48
2018-09-25T01:45:16.700Z,88.91
2018-09-25T01:46:16.926Z,89.76
2018-09-25T01:47:17.151Z,89.20
2018-09-25T01:48:17.377Z,88.81
2018-09-25T01:49:17.604Z,88.91
2018-09-25T01:50:17.829Z,88.91
2018-09-25T01:51:18.054Z,88.91
2018-09-25T01:52:18.276Z,89.39
2018-09-25T01:53:18.501Z,89.20
2018-09-25T01:54:18.735Z,89.48
2018-09-25T01:55:18.949Z,89.10
2018-09-25T01:56:19.179Z,89.48
2018-09-25T01:57:19.397Z,89.58
2018-09-25T01:58:19.623Z,89.20
2018-09-25T01:59:19.849Z,89.39
2018-09-25T02:00:20.077Z,89.39
2018-09-25T02:01:20.308Z,88.91
2018-09-25T02:02:20.529Z,89.00
2018-09-25T02:03:20.754Z,88.91
2018-09-25T02:04:20.979Z,89.10
2018-09-25T02:05:21.204Z,88.91
2018-09-25T02:06:21.429Z,89.48
2018-09-25T02:07:21.653Z,89.48
2018-09-25T02:08:21.879Z,88.91
2018-09-25T02:09:22.104Z,88.81
2018-09-25T02:10:22.330Z,89.39
2018-09-25T02:11:22.554Z,89.29
2018-09-25T02:12:22.779Z,89.20
2018-09-25T02:13:23.001Z,89.29
2018-09-25T02:14:23.227Z,89.29
2018-09-25T02:15:23.454Z,88.91
2018-09-25T02:16:23.678Z,89.10
2018-09-25T02:17:23.906Z,89.20
2018-09-25T02:18:24.132Z,89.86
2018-09-25T02:19:24.354Z,89.48
2018-09-25T02:20:24.578Z,89.48
2018-09-25T02:21:24.803Z,89.29
2018-09-25T02:22:25.027Z,89.39
2018-09-25T02:23:25.253Z,89.58
2018-09-25T02:24:25.478Z,89.29
2018-09-25T02:25:25.708Z,89.48
2018-09-25T02:26:25.928Z,89.48
2018-09-25T02:27:26.153Z,89.48
2018-09-25T02:28:26.379Z,88.20
2018-09-25T02:29:26.605Z,88.77
2018-09-25T02:30:26.833Z,89.25
2018-09-25T02:31:27.057Z,88.96
2018-09-25T02:32:27.281Z,88.68
2018-09-25T02:33:27.506Z,88.29
2018-09-25T02:34:27.738Z,89.39
2018-09-25T02:35:27.958Z,88.72
2018-09-25T02:36:28.185Z,88.58
2018-09-25T02:37:28.407Z,89.10
2018-09-25T02:38:28.632Z,88.68
2018-09-25T02:39:28.859Z,88.68
2018-09-25T02:40:29.083Z,88.39
2018-09-25T02:41:29.309Z,88.68
2018-09-25T02:42:29.536Z,87.63
2018-09-25T02:43:29.760Z,87.54
2018-09-25T02:44:29.985Z,88.01
2018-09-25T02:45:30.214Z,88.58
2018-09-25T02:46:30.440Z,88.39
2018-09-25T02:47:30.664Z,88.48
2018-09-25T02:48:30.889Z,88.77
2018-09-25T02:49:31.115Z,88.68
2018-09-25T02:50:31.338Z,88.29
2018-09-25T02:51:31.559Z,88.48
2018-09-25T02:52:31.785Z,89.25
2018-09-25T02:53:32.008Z,89.10
2018-09-25T02:54:32.238Z,89.62
2018-09-25T02:55:32.461Z,88.87
2018-09-25T02:56:32.685Z,88.96
2018-09-25T02:57:32.912Z,89.25
2018-09-25T02:58:33.139Z,88.58
2018-09-25T02:59:33.367Z,88.39
2018-09-25T03:00:33.588Z,88.10
2018-09-25T03:01:33.812Z,87.82
2018-09-25T03:02:34.038Z,88.29
2018-09-25T03:03:34.261Z,87.92
2018-09-25T03:04:34.486Z,88.68
2018-09-25T03:05:34.707Z,88.68
2018-09-25T03:06:34.948Z,88.96
2018-09-25T03:07:35.157Z,89.43
2018-09-25T03:08:35.356Z,88.96
2018-09-25T03:09:35.580Z,89.25
2018-09-25T03:10:35.806Z,89.34
2018-09-25T03:11:36.030Z,88.87
2018-09-25T03:12:36.255Z,88.87
2018-09-25T03:13:36.486Z,88.87
2018-09-25T03:14:36.709Z,88.96
2018-09-25T03:15:36.932Z,89.06
2018-09-25T03:16:37.157Z,89.25
2018-09-25T03:17:37.381Z,89.25
2018-09-25T03:18:37.610Z,88.87
2018-09-25T03:19:37.835Z,88.96
2018-09-25T03:20:38.057Z,88.29
2018-09-25T03:21:38.281Z,88.39
2018-09-25T03:22:38.503Z,88.68
2018-09-25T03:23:38.774Z,87.45
2018-09-25T03:24:38.951Z,87.92
2018-09-25T03:25:39.175Z,88.20
2018-09-25T03:26:39.400Z,88.10
2018-09-25T03:27:39.627Z,88.29
2018-09-25T03:28:39.852Z,87.73
2018-09-25T03:29:40.077Z,87.25
2018-09-25T03:30:40.300Z,87.54
2018-09-25T03:31:40.527Z,87.35
2018-09-25T03:32:40.750Z,87.25
2018-09-25T03:33:40.978Z,87.16
2018-09-25T03:34:41.203Z,87.45
2018-09-25T03:35:41.428Z,87.16
2018-09-25T03:36:41.655Z,87.25
2018-09-25T03:37:41.875Z,87.73
2018-09-25T03:38:42.103Z,88.48
2018-09-25T03:39:42.332Z,88.29
2018-09-25T03:40:42.554Z,88.20
2018-09-25T03:41:42.780Z,87.92
2018-09-25T03:42:43.006Z,88.58
2018-09-25T03:43:43.240Z,88.58
2018-09-25T03:44:43.457Z,88.48
2018-09-25T03:45:43.681Z,88.29
2018-09-25T03:46:43.909Z,88.20
2018-09-25T03:47:44.134Z,88.29
2018-09-25T03:48:44.356Z,88.58
2018-09-25T03:49:44.586Z,88.10
2018-09-25T03:50:44.811Z,87.73
2018-09-25T03:51:45.040Z,87.82
2018-09-25T03:52:45.261Z,88.06
2018-09-25T03:53:45.485Z,88.29
2018-09-25T03:54:45.709Z,88.10
2018-09-25T03:55:45.932Z,88.01
2018-09-25T03:56:46.161Z,88.39
2018-09-25T03:57:46.385Z,88.20
2018-09-25T03:58:46.613Z,88.29
2018-09-25T03:59:46.858Z,88.58
2018-09-25T04:00:47.061Z,88.10
2018-09-25T04:01:47.285Z,88.39
2018-09-25T04:02:47.516Z,88.48
2018-09-25T04:03:47.737Z,88.77
2018-09-25T04:04:47.964Z,88.48
2018-09-25T04:05:48.187Z,88.01
2018-09-25T04:06:48.415Z,87.54
2018-09-25T04:07:48.642Z,87.49
2018-09-25T04:08:48.860Z,87.21
2018-09-25T04:09:49.081Z,87.06
2018-09-25T04:10:49.309Z,87.35
2018-09-25T04:11:49.531Z,88.29
2018-09-25T04:12:49.760Z,87.63
2018-09-25T04:13:49.981Z,87.73
2018-09-25T04:14:50.208Z,87.25
2018-09-25T04:15:50.435Z,87.06
2018-09-25T04:16:50.656Z,87.45
2018-09-25T04:17:50.880Z,87.63
2018-09-25T04:18:51.105Z,87.54
2018-09-25T04:19:51.331Z,87.35
2018-09-25T04:20:51.557Z,87.73
2018-09-25T04:21:51.789Z,87.63
2018-09-25T04:22:52.009Z,87.45
2018-09-25T04:23:52.236Z,87.54
2018-09-25T04:24:52.462Z,87.35
2018-09-25T04:25:52.683Z,87.35
2018-09-25T04:26:52.910Z,87.63
2018-09-25T04:27:53.134Z,87.54
2018-09-25T04:28:53.363Z,86.87
2018-09-25T04:29:53.584Z,86.97
2018-09-25T04:30:53.808Z,86.68
2018-09-25T04:31:54.033Z,86.97
2018-09-25T04:32:54.260Z,86.59
2018-09-25T04:33:54.484Z,86.40
2018-09-25T04:34:54.711Z,85.55
2018-09-25T04:35:54.951Z,85.55
2018-09-25T04:36:55.153Z,85.26
2018-09-25T04:37:55.384Z,84.69
2018-09-25T04:38:55.607Z,84.22
2018-09-25T04:39:55.831Z,84.12
2018-09-25T04:40:56.057Z,84.41
2018-09-25T04:41:56.283Z,84.03
2018-09-25T04:42:56.508Z,84.31
2018-09-25T04:43:56.755Z,84.12
2018-09-25T04:44:56.959Z,84.50
2018-09-25T04:45:57.183Z,84.12
2018-09-25T04:46:57.412Z,83.84
2018-09-25T04:47:57.662Z,83.65
2018-09-25T04:48:57.862Z,83.94
2018-09-25T04:49:58.087Z,83.84
2018-09-25T04:50:58.309Z,83.84
2018-09-25T04:51:58.536Z,83.40
2018-09-25T04:52:58.758Z,83.78
2018-09-25T04:53:58.985Z,82.84
2018-09-25T04:54:59.210Z,83.69
2018-09-25T04:55:59.433Z,83.78
2018-09-25T04:56:59.679Z,83.12
2018-09-25T04:57:59.892Z,82.74
2018-09-25T04:59:00.131Z,82.74
2018-09-25T05:00:00.458Z,82.74
2018-09-25T05:01:00.547Z,82.36
2018-09-25T05:02:00.776Z,81.79
2018-09-25T05:03:00.993Z,81.88
2018-09-25T05:04:01.221Z,82.46
2018-09-25T05:05:01.445Z,82.65
2018-09-25T05:06:01.671Z,81.98
2018-09-25T05:07:01.891Z,81.79
2018-09-25T05:08:02.118Z,82.08
2018-09-25T05:09:02.343Z,82.27
2018-09-25T05:10:02.568Z,82.27
2018-09-25T05:11:02.795Z,81.79
2018-09-25T05:12:03.025Z,81.88
2018-09-25T05:13:03.247Z,82.17
2018-09-25T05:14:03.474Z,82.17
2018-09-25T05:15:03.696Z,81.98
2018-09-25T05:16:03.918Z,82.55
2018-09-25T05:17:04.143Z,82.17
2018-09-25T05:18:04.372Z,82.36
2018-09-25T05:19:04.590Z,82.46
2018-09-25T05:20:04.817Z,82.36
2018-09-25T05:21:05.042Z,82.36
2018-09-25T05:22:05.271Z,82.55
2018-09-25T05:23:05.493Z,82.55
2018-09-25T05:24:05.722Z,82.46
2018-09-25T05:25:05.945Z,81.70
2018-09-25T05:26:06.338Z,82.36
2018-09-25T05:27:06.395Z,81.60
2018-09-25T05:28:06.621Z,82.36
2018-09-25T05:29:06.846Z,82.46
2018-09-25T05:30:07.072Z,82.36
2018-09-25T05:31:07.297Z,82.46
2018-09-25T05:32:07.524Z,82.17
2018-09-25T05:33:07.748Z,82.36
2018-09-25T05:34:07.976Z,82.36
2018-09-25T05:35:08.199Z,82.65
2018-09-25T05:36:08.432Z,82.36
2018-09-25T05:37:08.649Z,83.03
2018-09-25T05:38:08.878Z,82.55
2018-09-25T05:39:09.101Z,81.79
2018-09-25T05:40:09.337Z,82.36
2018-09-25T05:41:09.549Z,81.18
2018-09-25T05:42:09.774Z,81.60
2018-09-25T05:43:10.000Z,81.13
2018-09-25T05:44:10.223Z,81.13
2018-09-25T05:45:10.453Z,81.41
2018-09-25T05:46:10.672Z,81.23
2018-09-25T05:47:10.896Z,80.65
2018-09-25T05:48:11.149Z,80.84
2018-09-25T05:49:11.344Z,81.04
2018-09-25T05:50:11.571Z,81.41
2018-09-25T05:51:11.794Z,81.51
2018-09-25T05:52:12.022Z,81.32
2018-09-25T05:53:12.243Z,81.98
2018-09-25T05:54:12.505Z,81.32
2018-09-25T05:55:12.732Z,81.32
2018-09-25T05:56:12.956Z,82.17
2018-09-25T05:57:13.182Z,81.88
2018-09-25T05:58:13.404Z,81.88
2018-09-25T05:59:13.631Z,82.46
2018-09-25T06:00:13.855Z,82.55
2018-09-25T06:01:14.081Z,82.65
2018-09-25T06:02:14.308Z,82.46
2018-09-25T06:03:14.531Z,82.36
2018-09-25T06:04:14.755Z,82.46
2018-09-25T06:05:14.983Z,82.55
2018-09-25T06:06:15.209Z,82.27
2018-09-25T06:07:15.436Z,82.40
2018-09-25T06:08:15.663Z,82.74
2018-09-25T06:09:15.939Z,82.46
2018-09-25T06:10:16.110Z,82.27
2018-09-25T06:11:16.335Z,82.27
2018-09-25T06:12:16.566Z,82.40
2018-09-25T06:13:16.791Z,83.16
2018-09-25T06:14:17.017Z,84.01
2018-09-25T06:15:17.251Z,83.45
2018-09-25T06:16:17.468Z,84.59
2018-09-25T06:17:17.692Z,85.53
2018-09-25T06:18:17.919Z,86.72
2018-09-25T06:19:18.146Z,87.48
2018-09-25T06:20:18.368Z,87.19
2018-09-25T06:21:18.594Z,87.95
2018-09-25T06:22:18.824Z,89.00
2018-09-25T06:23:19.044Z,89.09
2018-09-25T06:24:19.270Z,89.28
2018-09-25T06:25:19.495Z,89.57
2018-09-25T06:26:19.719Z,89.57
2018-09-25T06:27:19.946Z,89.95
2018-09-25T06:28:20.169Z,90.14
2018-09-25T06:29:20.394Z,89.95
2018-09-25T06:30:20.620Z,90.14
2018-09-25T06:31:20.835Z,89.76
2018-09-25T06:32:21.064Z,90.42
2018-09-25T06:33:21.291Z,90.42
2018-09-25T06:34:21.566Z,90.99
2018-09-25T06:35:21.741Z,90.80
2018-09-25T06:36:21.966Z,90.71
2018-09-25T06:37:22.205Z,90.61
2018-09-25T06:38:22.416Z,91.13
2018-09-25T06:39:22.644Z,91.13
2018-09-25T06:40:22.867Z,90.75
2018-09-25T06:41:23.104Z,91.61
2018-09-25T06:42:23.318Z,91.61
2018-09-25T06:43:23.541Z,91.61
2018-09-25T06:44:23.767Z,91.52
2018-09-25T06:45:23.993Z,92.08
2018-09-25T06:46:24.228Z,92.27
2018-09-25T06:47:24.503Z,91.52
2018-09-25T06:48:24.669Z,91.42
2018-09-25T06:49:24.896Z,92.18
2018-09-25T06:50:25.121Z,92.08
2018-09-25T06:51:25.343Z,92.37
2018-09-25T06:52:25.570Z,92.18
2018-09-25T06:53:25.797Z,92.37
2018-09-25T06:54:26.019Z,91.61
2018-09-25T06:55:26.246Z,92.46
2018-09-25T06:56:26.469Z,92.75
2018-09-25T06:57:26.696Z,92.37
2018-09-25T07:00:00.107Z,92.18
2018-09-25T07:01:00.429Z,92.51
2018-09-25T07:02:00.558Z,92.18
2018-09-25T07:03:00.781Z,92.27
2018-09-25T07:04:01.007Z,92.46
2018-09-25T07:05:01.231Z,92.37
2018-09-25T07:06:01.455Z,92.27
2018-09-25T07:07:01.685Z,91.52
2018-09-25T07:08:01.909Z,91.42
2018-09-25T07:09:02.131Z,90.66
2018-09-25T07:10:02.519Z,91.71
2018-09-25T07:11:02.579Z,91.80
2018-09-25T07:12:02.807Z,92.61
2018-09-25T07:13:03.033Z,93.75
2018-09-25T07:14:03.259Z,93.55
2018-09-25T07:15:03.511Z,93.08
2018-09-25T07:16:03.737Z,93.08
2018-09-25T07:17:03.963Z,92.70
2018-09-25T07:18:04.218Z,92.51
2018-09-25T07:19:04.410Z,92.27
2018-09-25T07:20:04.640Z,92.85
2018-09-25T07:21:04.862Z,92.56
2018-09-25T07:22:05.089Z,92.89
2018-09-25T07:23:05.313Z,92.99
2018-09-25T07:24:05.539Z,92.32
2018-09-25T07:25:05.832Z,91.75
2018-09-25T07:26:05.992Z,92.41
2018-09-25T07:27:06.214Z,92.27
2018-09-25T07:28:06.441Z,92.70
2018-09-25T07:29:06.663Z,92.61
2018-09-25T07:30:06.893Z,93.18
2018-09-25T07:31:07.179Z,92.80
2018-09-25T07:32:07.344Z,93.18
2018-09-25T07:33:07.571Z,93.51
2018-09-25T07:34:07.783Z,93.89
2018-09-25T07:35:08.027Z,93.89
2018-09-25T07:36:08.260Z,93.89
2018-09-25T07:37:08.480Z,93.32
2018-09-25T07:38:08.709Z,93.13
2018-09-25T07:39:08.932Z,93.89
2018-09-25T07:40:09.157Z,93.98
2018-09-25T07:41:09.388Z,93.84
2018-09-25T07:42:09.611Z,94.32
2018-09-25T07:43:09.846Z,94.13
2018-09-25T07:44:10.064Z,94.17
2018-09-25T07:45:10.288Z,93.74
2018-09-25T07:46:10.518Z,93.18
2018-09-25T07:47:10.742Z,94.17
2018-09-25T07:48:10.994Z,94.37
2018-09-25T07:49:11.199Z,93.51
2018-09-25T07:50:11.421Z,93.79
2018-09-25T07:51:11.647Z,94.84
2018-09-25T07:52:11.872Z,94.17
2018-09-25T07:53:12.107Z,93.93
2018-09-25T07:54:12.327Z,94.41
2018-09-25T07:55:12.559Z,94.41
2018-09-25T07:56:12.786Z,94.32
2018-09-25T07:57:13.019Z,94.89
2018-09-25T07:58:13.259Z,94.22
2018-09-25T07:59:13.471Z,94.41
2018-09-25T08:00:13.695Z,95.17
2018-09-25T08:01:13.923Z,94.56
2018-09-25T08:02:14.150Z,95.12
2018-09-25T08:03:14.417Z,94.93
2018-09-25T08:04:14.600Z,94.27
2018-09-25T08:05:14.825Z,94.74
2018-09-25T08:06:15.060Z,94.37
2018-09-25T08:07:15.280Z,94.65
2018-09-25T08:08:15.509Z,94.70
2018-09-25T08:09:15.736Z,94.32
2018-09-25T08:10:15.963Z,94.41
2018-09-25T08:11:16.188Z,94.41
2018-09-25T08:12:16.416Z,94.13
2018-09-25T08:13:16.643Z,94.60
2018-09-25T08:14:16.872Z,94.32
2018-09-25T08:15:17.140Z,94.51
2018-09-25T08:16:17.329Z,94.03
2018-09-25T08:17:17.553Z,94.32
2018-09-25T08:18:17.780Z,94.74
2018-09-25T08:19:18.010Z,94.93
2018-09-25T08:20:18.238Z,94.37
2018-09-25T08:21:18.467Z,93.98
2018-09-25T08:22:18.710Z,94.37
2018-09-25T08:23:18.917Z,94.56
2018-09-25T08:24:19.146Z,94.27
2018-09-25T08:25:19.369Z,94.74
2018-09-25T08:26:19.596Z,94.13
2018-09-25T08:27:19.822Z,94.13
2018-09-25T08:28:20.051Z,94.22
2018-09-25T08:29:20.279Z,93.84
2018-09-25T08:30:20.509Z,93.74
2018-09-25T08:31:20.733Z,92.79
2018-09-25T08:32:20.958Z,93.55
2018-09-25T08:33:21.182Z,94.41
2018-09-25T08:34:21.409Z,93.93
2018-09-25T08:35:21.636Z,94.03
2018-09-25T08:36:21.863Z,93.84
2018-09-25T08:37:22.091Z,94.08
2018-09-25T08:38:22.331Z,93.79
2018-09-25T08:39:22.662Z,93.79
2018-09-25T08:40:22.772Z,94.46
2018-09-25T08:41:22.997Z,94.08
2018-09-25T08:42:23.224Z,94.27
2018-09-25T08:43:23.449Z,94.08
2018-09-25T08:44:23.674Z,94.37
2018-09-25T08:45:23.902Z,94.27
2018-09-25T08:46:24.126Z,94.37
2018-09-25T08:47:24.353Z,94.27
2018-09-25T08:48:24.585Z,94.65
2018-09-25T08:49:24.814Z,94.17
2018-09-25T08:50:25.040Z,94.37
2018-09-25T08:51:25.265Z,94.37
2018-09-25T08:52:25.494Z,94.27
2018-09-25T08:53:25.771Z,94.27
2018-09-25T08:54:25.950Z,93.98
2018-09-25T08:55:26.179Z,94.22
2018-09-25T08:56:26.405Z,94.32
2018-09-25T08:57:26.632Z,94.32
2018-09-25T08:58:26.861Z,94.22
2018-09-25T08:59:27.094Z,94.32
2018-09-25T09:00:27.321Z,94.03
2018-09-25T09:01:27.543Z,93.46
2018-09-25T09:02:27.768Z,93.93
2018-09-25T09:03:27.995Z,93.84
2018-09-25T09:04:28.225Z,94.12
2018-09-25T09:05:28.449Z,93.84
2018-09-25T09:06:28.682Z,94.60
2018-09-25T09:07:28.905Z,94.60
2018-09-25T09:08:29.169Z,94.60
2018-09-25T09:09:29.359Z,94.51
2018-09-25T09:10:30.139Z,94.32
2018-09-25T09:11:29.865Z,94.60
2018-09-25T09:12:30.094Z,94.32
2018-09-25T09:13:30.318Z,94.60
2018-09-25T09:14:30.547Z,95.03
2018-09-25T09:15:30.775Z,95.41
2018-09-25T09:16:31.003Z,95.22
2018-09-25T09:17:31.230Z,94.46
2018-09-25T09:18:31.459Z,95.70
2018-09-25T09:19:31.699Z,94.93
2018-09-25T09:20:31.913Z,95.70
2018-09-25T09:21:32.141Z,94.65
2018-09-25T09:22:32.365Z,95.22
2018-09-25T09:23:32.590Z,95.22
2018-09-25T09:24:32.818Z,94.84
2018-09-25T09:25:33.044Z,94.93
2018-09-25T09:26:33.273Z,95.12
2018-09-25T09:27:33.504Z,94.36
2018-09-25T09:28:33.722Z,95.12
2018-09-25T09:29:33.948Z,94.70
2018-09-25T09:30:34.175Z,95.46
2018-09-25T09:31:34.399Z,95.17
2018-09-25T09:32:34.696Z,95.08
2018-09-25T09:33:34.856Z,95.46
2018-09-25T09:34:35.086Z,95.17
2018-09-25T09:35:35.313Z,95.03
2018-09-25T09:36:35.541Z,94.89
2018-09-25T09:37:35.769Z,94.93
2018-09-25T09:38:35.998Z,94.84
2018-09-25T09:39:36.226Z,95.03
2018-09-25T09:40:36.454Z,94.55
2018-09-25T09:41:36.929Z,94.55
2018-09-25T09:42:36.911Z,93.88
2018-09-25T09:43:37.140Z,93.12
2018-09-25T09:44:37.367Z,93.12
2018-09-25T09:45:37.600Z,93.02
2018-09-25T09:46:37.825Z,93.31
2018-09-25T09:47:38.053Z,93.31
2018-09-25T09:48:38.280Z,93.12
2018-09-25T09:49:38.508Z,93.02
2018-09-25T09:50:38.741Z,93.21
2018-09-25T09:51:38.970Z,93.31
2018-09-25T09:52:39.200Z,92.93
2018-09-25T09:53:39.426Z,92.93
2018-09-25T09:54:39.656Z,93.12
2018-09-25T09:55:39.887Z,93.36
2018-09-25T09:56:40.112Z,92.97
2018-09-25T09:57:40.341Z,93.07
2018-09-25T09:58:40.568Z,92.40
2018-09-25T09:59:40.796Z,91.74
2018-09-25T10:00:41.026Z,91.83
2018-09-25T10:01:41.250Z,91.97
2018-09-25T10:02:41.479Z,91.30
2018-09-25T10:03:41.707Z,90.06
2018-09-25T10:04:41.933Z,89.39
2018-09-25T10:05:42.164Z,89.58
2018-09-25T10:06:42.439Z,89.10
2018-09-25T10:07:42.618Z,84.70
2018-09-25T10:08:42.845Z,81.45
2018-09-25T10:09:43.074Z,79.06
2018-09-25T10:10:43.308Z,77.67
2018-09-25T10:11:43.533Z,77.76
2018-09-25T10:12:43.758Z,78.24
2018-09-25T10:13:43.986Z,75.18
2018-09-25T10:14:44.214Z,74.84
2018-09-25T10:15:44.442Z,74.65
2018-09-25T10:16:44.671Z,72.63
2018-09-25T10:17:44.901Z,70.34
2018-09-25T10:18:45.171Z,70.24
2018-09-25T10:19:45.372Z,72.12
2018-09-25T10:20:45.608Z,71.45
2018-09-25T10:21:45.834Z,72.69
2018-09-25T10:22:46.061Z,72.50
2018-09-25T10:23:46.292Z,70.30
2018-09-25T10:24:46.521Z,70.17
2018-09-25T10:25:46.750Z,69.98
2018-09-25T10:26:46.980Z,70.94
2018-09-25T10:27:47.208Z,71.13
2018-09-25T10:28:47.440Z,71.99
2018-09-25T10:29:47.667Z,73.65
2018-09-25T10:30:47.896Z,73.36
2018-09-25T10:31:48.126Z,70.97
2018-09-25T10:32:48.356Z,70.30
2018-09-25T10:33:48.604Z,70.59
2018-09-25T10:34:48.815Z,71.36
2018-09-25T10:35:49.043Z,70.24
2018-09-25T10:36:49.275Z,70.15
2018-09-25T10:37:49.510Z,66.57
2018-09-25T10:38:49.733Z,67.34
2018-09-25T10:39:49.960Z,67.82
2018-09-25T10:40:50.201Z,69.82
2018-09-25T10:41:50.420Z,70.84
2018-09-25T10:42:50.648Z,71.51
2018-09-25T10:43:50.877Z,72.37
2018-09-25T10:44:51.105Z,72.47
2018-09-25T10:45:51.333Z,72.98
2018-09-25T10:46:51.564Z,72.88
2018-09-25T10:47:51.793Z,73.55
2018-09-25T10:48:52.022Z,72.60
2018-09-25T10:49:52.313Z,71.36
2018-09-25T10:50:52.479Z,71.20
2018-09-25T10:51:52.721Z,72.06
2018-09-25T10:52:52.947Z,71.11
2018-09-25T10:53:53.179Z,70.91
2018-09-25T10:54:53.405Z,70.53
2018-09-25T10:55:53.686Z,70.05
2018-09-25T10:56:53.866Z,70.56
2018-09-25T10:57:54.091Z,68.27
2018-09-25T10:58:54.323Z,66.74
2018-09-25T10:59:54.551Z,66.54
2018-09-25T11:00:54.782Z,66.25
2018-09-25T11:01:55.009Z,65.01
2018-09-25T11:02:55.309Z,64.82
2018-09-25T11:03:55.466Z,64.63
2018-09-25T11:04:55.699Z,64.72
2018-09-25T11:05:55.929Z,64.92
2018-09-25T11:06:56.165Z,64.34
2018-09-25T11:07:56.389Z,63.19
2018-09-25T11:08:56.623Z,62.77
2018-09-25T11:09:56.901Z,62.49
2018-09-25T11:10:57.080Z,62.30
2018-09-25T11:11:57.314Z,62.20
2018-09-25T11:12:57.543Z,62.97
2018-09-25T11:13:57.772Z,62.20
2018-09-25T11:14:58.000Z,63.06
2018-09-25T11:15:58.231Z,62.87
2018-09-25T11:16:58.460Z,61.63
2018-09-25T11:17:58.689Z,61.25
2018-09-25T11:18:58.919Z,62.30
2018-09-25T11:19:59.147Z,61.63
2018-09-25T11:20:59.377Z,62.01
2018-09-25T11:21:59.606Z,61.05
2018-09-25T11:22:59.833Z,61.91
2018-09-25T11:24:00.068Z,61.57
2018-09-25T11:25:00.292Z,59.94
2018-09-25T11:26:00.520Z,57.73
2018-09-25T11:27:00.748Z,57.95
2018-09-25T11:28:00.977Z,57.09
2018-09-25T11:29:01.207Z,58.53
2018-09-25T11:30:01.437Z,59.42
2018-09-25T11:31:01.669Z,55.49
2018-09-25T11:32:01.894Z,54.24
2018-09-25T11:33:02.124Z,53.58
2018-09-25T11:34:02.356Z,52.93
2018-09-25T11:35:02.590Z,51.87
2018-09-25T11:36:02.829Z,50.24
2018-09-25T11:37:03.054Z,50.82
2018-09-25T11:38:03.287Z,51.01
2018-09-25T11:39:03.520Z,50.63
2018-09-25T11:40:03.752Z,50.73
2018-09-25T11:41:04.082Z,51.68
2018-09-25T11:42:04.209Z,51.65
2018-09-25T11:43:04.438Z,51.65
2018-09-25T11:44:04.667Z,51.65
2018-09-25T11:45:04.894Z,53.00
2018-09-25T11:46:05.195Z,53.00
2018-09-25T11:47:05.362Z,53.58
2018-09-25T11:48:05.583Z,53.96
2018-09-25T11:49:05.817Z,54.91
2018-09-25T11:50:06.044Z,54.72
2018-09-25T11:51:06.276Z,55.27
2018-09-25T11:52:06.507Z,55.46
2018-09-25T11:53:06.738Z,56.54
2018-09-25T11:54:06.968Z,55.87
2018-09-25T11:55:07.196Z,56.52
2018-09-25T11:56:07.433Z,55.56
2018-09-25T11:57:07.655Z,55.27
2018-09-25T11:58:07.891Z,55.56
2018-09-25T11:59:08.115Z,55.58
2018-09-25T12:00:08.389Z,56.35
2018-09-25T12:01:08.621Z,55.30
2018-09-25T12:02:08.888Z,55.21
2018-09-25T12:03:09.079Z,55.58
2018-09-25T12:04:09.308Z,54.34
2018-09-25T12:05:09.540Z,53.96
2018-09-25T12:06:09.771Z,54.79
2018-09-25T12:07:10.000Z,55.58
2018-09-25T12:08:10.232Z,54.82
2018-09-25T12:09:10.463Z,55.85
2018-09-25T12:10:10.693Z,56.04
2018-09-25T12:11:10.924Z,56.90
2018-09-25T12:12:11.153Z,58.15
2018-09-25T12:13:11.386Z,58.72
2018-09-25T12:14:11.613Z,58.81
2018-09-25T12:15:11.849Z,58.62
2018-09-25T12:16:12.072Z,59.30
2018-09-25T12:17:12.302Z,59.87
2018-09-25T12:18:12.533Z,59.27
2018-09-25T12:19:12.765Z,59.65
2018-09-25T12:20:12.993Z,60.41
2018-09-25T12:21:13.221Z,60.32
2018-09-25T12:22:13.455Z,59.75
2018-09-25T12:23:13.730Z,59.94
2018-09-25T12:24:13.910Z,60.10
2018-09-25T12:25:14.134Z,60.29
2018-09-25T12:26:14.360Z,60.38
2018-09-25T12:27:14.592Z,61.15
2018-09-25T12:28:14.824Z,61.82
2018-09-25T12:29:15.053Z,61.82
2018-09-25T12:30:15.284Z,62.01
2018-09-25T12:31:15.508Z,62.30
2018-09-25T12:32:15.729Z,63.93
2018-09-25T12:33:15.959Z,63.16
2018-09-25T12:34:16.190Z,62.97
2018-09-25T12:35:16.422Z,62.77
2018-09-25T12:36:16.651Z,61.44
2018-09-25T12:37:16.882Z,60.96
2018-09-25T12:38:17.115Z,60.67
2018-09-25T12:39:17.342Z,61.25
2018-09-25T12:40:17.574Z,63.16
2018-09-25T12:41:17.803Z,63.26
2018-09-25T12:42:18.030Z,62.20
2018-09-25T12:43:18.257Z,61.47
2018-09-25T12:44:18.485Z,62.04
2018-09-25T12:45:18.718Z,61.94
2018-09-25T12:46:18.949Z,60.03
2018-09-25T12:47:19.177Z,58.79
2018-09-25T12:48:19.409Z,58.40
2018-09-25T12:49:19.640Z,59.36
2018-09-25T12:50:19.870Z,59.65
2018-09-25T12:51:20.095Z,59.84
2018-09-25T12:52:20.360Z,59.84
2018-09-25T12:53:20.557Z,59.84
2018-09-25T12:54:20.784Z,59.36
2018-09-25T12:55:21.013Z,59.97
2018-09-25T12:56:21.244Z,58.72
2018-09-25T12:57:21.476Z,60.06